Time;durP1;ratioP1;P1;durP2;ratioP2;P2;SDS_P1;SDS_P2;PMS_P1;PMS_P2;Temp;Humidity;BMP_temperature;BMP_pressure;BME280_temperature;BME280_humidity;BME280_pressure;Samples;Min_cycle;Max_cycle;Signal;HPM_P1;HPM_P2
2021/12/05 00:19:54;;;;;;;2.27;0.93;;;3.30;99.90;;;;;;5007200;28;20710;-77
2021/12/05 00:22:46;;;;;;;2.23;1.57;;;3.30;99.90;;;;;;4996986;28;20218;-77
2021/12/05 00:25:18;;;;;;;2.40;0.60;;;3.30;99.90;;;;;;5003565;28;20192;-77
2021/12/05 00:27:49;;;;;;;1.33;0.80;;;3.60;99.90;;;;;;5013877;28;20186;-77
2021/12/05 00:43:39;;;;;;;2.30;0.97;;;3.40;99.90;;;;;;5015904;28;20241;-78
2021/12/05 01:02:17;;;;;;;5.80;1.57;;;3.30;99.90;;;;;;5012897;28;20205;-77
2021/12/05 01:10:15;;;;;;;7.10;1.47;;;3.30;99.90;;;;;;5000554;28;20206;-78
2021/12/05 01:15:27;;;;;;;2.57;1.40;;;3.30;99.90;;;;;;5010676;28;20217;-77
2021/12/05 01:18:10;;;;;;;8.57;1.70;;;3.30;99.90;;;;;;5012586;28;20201;-77
2021/12/05 01:20:41;;;;;;;4.60;1.43;;;3.30;99.90;;;;;;5012217;28;20258;-76
2021/12/05 01:23:21;;;;;;;7.67;1.63;;;3.30;99.90;;;;;;5005379;28;20201;-78
2021/12/05 01:28:32;;;;;;;4.63;1.20;;;3.40;99.90;;;;;;5012357;28;20171;-78
2021/12/05 01:31:12;;;;;;;5.93;1.10;;;3.40;99.90;;;;;;5010544;28;20558;-77
2021/12/05 01:36:14;;;;;;;2.77;1.23;;;3.40;99.90;;;;;;5012521;28;20177;-77
2021/12/05 01:52:16;;;;;;;4.80;1.60;;;3.30;99.90;;;;;;5016290;28;20633;-77
2021/12/05 02:33:18;;;;;;;3.13;0.90;;;3.40;99.90;;;;;;5015514;28;20227;-77
2021/12/05 02:41:16;;;;;;;4.67;0.97;;;3.50;99.90;;;;;;4970626;28;20325;-76
2021/12/05 02:43:49;;;;;;;4.23;1.13;;;3.50;99.90;;;;;;4990847;28;20200;-77
2021/12/05 02:46:18;;;;;;;3.90;1.43;;;3.60;99.90;;;;;;5011906;28;20181;-77
2021/12/05 02:48:44;;;;;;;5.73;1.00;;;3.50;99.90;;;;;;5014928;28;20198;-77
2021/12/05 02:51:20;;;;;;;3.37;1.00;;;3.50;99.90;;;;;;5013656;28;20278;-77
2021/12/05 02:53:51;;;;;;;3.73;1.00;;;3.50;99.90;;;;;;5014889;28;20195;-77
2021/12/05 02:56:18;;;;;;;4.23;0.80;;;3.50;99.90;;;;;;5012100;28;20163;-78
2021/12/05 03:01:22;;;;;;;8.40;1.37;;;3.50;99.90;;;;;;5015149;28;20175;-77
2021/12/05 03:03:50;;;;;;;1.33;0.80;;;3.50;99.90;;;;;;4987301;28;20242;-77
2021/12/05 03:06:22;;;;;;;3.27;0.97;;;3.40;99.90;;;;;;4992975;28;20635;-78
2021/12/05 03:08:53;;;;;;;3.80;1.30;;;3.40;99.90;;;;;;5003047;28;20171;-78
2021/12/05 03:11:19;;;;;;;2.63;0.97;;;3.20;99.90;;;;;;5008549;28;20286;-79
2021/12/05 03:13:45;;;;;;;2.17;0.80;;;3.20;99.90;;;;;;5016430;28;20757;-79
2021/12/05 03:16:15;;;;;;;1.30;0.60;;;3.20;99.90;;;;;;5019290;28;20202;-78
2021/12/05 03:18:41;;;;;;;0.73;0.70;;;3.00;99.90;;;;;;5018640;28;20175;-80
2021/12/05 03:21:08;;;;;;;1.33;0.80;;;2.90;99.90;;;;;;5017551;28;20617;-79
2021/12/05 03:23:41;;;;;;;1.20;1.00;;;2.80;99.90;;;;;;5015676;28;20200;-78
2021/12/05 03:26:11;;;;;;;1.77;0.90;;;2.70;99.90;;;;;;5016014;28;20191;-79
2021/12/05 03:28:38;;;;;;;0.93;0.80;;;2.80;99.90;;;;;;5012379;28;20222;-77
2021/12/05 03:31:05;;;;;;;1.67;0.83;;;2.80;99.90;;;;;;4996902;28;20195;-78
2021/12/05 03:33:31;;;;;;;2.53;0.97;;;2.80;99.90;;;;;;4995520;28;20290;-79
2021/12/05 03:35:58;;;;;;;1.00;0.70;;;3.10;99.90;;;;;;5016454;28;20203;-78
2021/12/05 03:38:24;;;;;;;2.00;0.80;;;2.70;99.90;;;;;;4996747;28;20221;-77
2021/12/05 03:40:50;;;;;;;1.60;0.70;;;2.80;99.90;;;;;;5015805;28;20180;-77
2021/12/05 03:43:18;;;;;;;2.53;0.80;;;2.80;99.90;;;;;;5015623;28;20216;-78
2021/12/05 03:45:46;;;;;;;1.43;0.80;;;2.90;99.90;;;;;;5013096;28;20198;-78
2021/12/05 03:48:16;;;;;;;1.70;1.60;;;2.90;99.90;;;;;;4995539;28;20183;-78
2021/12/05 03:50:43;;;;;;;1.27;0.83;;;3.00;99.90;;;;;;5014475;28;20191;-77
2021/12/05 03:53:09;;;;;;;2.87;1.07;;;2.90;99.90;;;;;;5014833;28;20257;-77
2021/12/05 03:55:37;;;;;;;1.70;1.10;;;3.00;99.90;;;;;;4996978;28;20183;-77
2021/12/05 03:58:03;;;;;;;2.23;1.13;;;3.00;99.90;;;;;;4996655;28;20176;-77
2021/12/05 04:00:33;;;;;;;3.23;1.90;;;2.90;99.90;;;;;;4996371;28;20194;-77
2021/12/05 04:03:02;;;;;;;1.30;1.10;;;3.00;99.90;;;;;;4996745;28;20205;-77
2021/12/05 04:05:31;;;;;;;3.00;1.60;;;2.90;99.90;;;;;;4997001;28;20650;-77
2021/12/05 04:07:57;;;;;;;4.33;2.00;;;2.80;99.90;;;;;;5002446;28;20807;-78
2021/12/05 04:10:26;;;;;;;2.10;1.63;;;2.80;99.90;;;;;;5015330;28;20242;-78
2021/12/05 04:12:53;;;;;;;1.73;1.27;;;2.80;99.90;;;;;;5014486;28;20195;-79
2021/12/05 04:15:19;;;;;;;4.13;1.57;;;2.90;99.90;;;;;;5015156;28;20175;-78
2021/12/05 04:17:46;;;;;;;4.97;1.60;;;2.90;99.90;;;;;;5015488;28;20234;-77
2021/12/05 04:20:13;;;;;;;2.53;1.90;;;3.00;99.90;;;;;;5014867;28;20182;-77
2021/12/05 04:22:39;;;;;;;4.23;1.93;;;3.00;99.90;;;;;;5014817;28;20203;-77
2021/12/05 04:25:09;;;;;;;4.63;1.90;;;3.00;99.90;;;;;;5014471;28;20253;-77
2021/12/05 04:27:39;;;;;;;3.90;2.00;;;3.00;99.90;;;;;;5014436;28;20175;-78
2021/12/05 04:30:10;;;;;;;3.20;2.20;;;3.00;99.90;;;;;;5013937;28;20187;-78
2021/12/05 04:32:35;;;;;;;2.27;1.70;;;3.00;99.90;;;;;;5014722;28;20278;-78
2021/12/05 04:35:02;;;;;;;1.93;1.43;;;3.00;99.90;;;;;;5014446;28;20274;-77
2021/12/05 04:37:28;;;;;;;4.53;2.27;;;2.90;99.90;;;;;;5015010;28;20183;-76
2021/12/05 04:39:53;;;;;;;6.33;2.13;;;2.90;99.90;;;;;;5014288;28;20183;-77
2021/12/05 04:42:19;;;;;;;3.07;2.07;;;2.90;99.90;;;;;;5009805;28;20253;-77
2021/12/05 04:44:45;;;;;;;5.13;1.90;;;2.90;99.90;;;;;;5014253;28;20185;-78
2021/12/05 04:47:11;;;;;;;3.50;2.00;;;3.00;99.90;;;;;;5014357;28;20190;-77
2021/12/05 04:49:41;;;;;;;7.33;2.20;;;3.00;99.90;;;;;;5013774;28;20203;-77
2021/12/05 04:52:09;;;;;;;1.93;1.67;;;3.00;99.90;;;;;;5013817;28;20206;-78
2021/12/05 04:54:35;;;;;;;3.17;2.20;;;3.10;99.90;;;;;;4996324;28;20639;-78
2021/12/05 04:57:01;;;;;;;3.53;2.00;;;3.10;99.90;;;;;;5013543;28;20190;-77
2021/12/05 04:59:29;;;;;;;5.53;1.60;;;3.10;99.90;;;;;;4996576;28;20179;-78
2021/12/05 05:01:59;;;;;;;2.70;1.60;;;3.00;99.90;;;;;;5008533;28;20739;-77
2021/12/05 05:04:29;;;;;;;2.50;1.83;;;3.10;99.90;;;;;;4997219;28;20187;-78
2021/12/05 05:07:00;;;;;;;4.17;2.10;;;3.10;99.90;;;;;;4992865;28;20642;-78
2021/12/05 05:09:27;;;;;;;3.70;1.80;;;3.10;99.90;;;;;;4996719;28;20274;-78
2021/12/05 05:11:53;;;;;;;4.07;2.00;;;3.10;99.90;;;;;;5000570;28;20677;-77
2021/12/05 05:14:19;;;;;;;3.63;1.70;;;3.10;99.90;;;;;;5000003;28;20206;-79
2021/12/05 05:16:47;;;;;;;2.93;1.50;;;3.20;99.90;;;;;;4994147;28;20258;-77
2021/12/05 05:19:16;;;;;;;1.97;1.57;;;3.20;99.90;;;;;;4995252;28;20182;-77
2021/12/05 05:27:08;;;;;;;4.07;1.40;;;3.30;99.90;;;;;;5012642;28;20183;-77
2021/12/05 05:40:36;;;;;;;1.63;1.40;;;3.20;99.90;;;;;;5012998;28;20201;-77
2021/12/05 05:50:27;;;;;;;2.73;1.70;;;3.10;99.90;;;;;;5009633;28;20641;-77
2021/12/05 05:52:52;;;;;;;4.27;1.60;;;3.10;99.90;;;;;;5012225;28;20199;-77
2021/12/05 05:55:18;;;;;;;3.73;1.53;;;3.00;99.90;;;;;;5012371;28;20234;-77
2021/12/05 06:00:53;;;;;;;2.77;1.20;;;3.10;99.90;;;;;;5012500;28;20182;-75
2021/12/05 06:03:22;;;;;;;3.70;1.37;;;3.10;99.90;;;;;;5010419;28;20585;-77
2021/12/05 06:05:57;;;;;;;4.53;1.50;;;3.10;99.90;;;;;;5012312;28;20290;-77
2021/12/05 06:08:26;;;;;;;5.73;1.57;;;3.00;99.90;;;;;;4994705;28;20172;-77
2021/12/05 06:10:59;;;;;;;1.53;1.43;;;3.10;99.90;;;;;;5012115;28;20624;-77
2021/12/05 06:13:26;;;;;;;5.10;2.20;;;3.00;99.90;;;;;;4995907;28;20690;-77
2021/12/05 06:15:52;;;;;;;2.83;1.67;;;3.10;99.90;;;;;;5014229;28;20317;-77
2021/12/05 06:18:18;;;;;;;2.63;1.50;;;3.10;99.90;;;;;;4996116;28;20175;-76
2021/12/05 06:20:44;;;;;;;5.10;1.60;;;3.00;99.90;;;;;;5012235;28;20183;-77
2021/12/05 06:23:11;;;;;;;4.03;1.40;;;3.00;99.90;;;;;;5012614;28;20669;-76
2021/12/05 06:25:39;;;;;;;3.20;1.30;;;3.00;99.90;;;;;;5012446;28;20199;-77
2021/12/05 06:28:14;;;;;;;1.73;1.10;;;3.10;99.90;;;;;;5015885;28;20182;-76
2021/12/05 06:39:26;;;;;;;5.23;2.07;;;3.00;99.90;;;;;;5015041;28;20220;-77
2021/12/05 06:42:01;;;;;;;3.90;2.60;;;3.00;99.90;;;;;;5015400;28;20187;-77
2021/12/05 06:47:13;;;;;;;4.30;1.50;;;3.00;99.90;;;;;;5017003;28;20211;-76
2021/12/05 06:49:43;;;;;;;3.77;1.50;;;3.10;99.90;;;;;;4998911;28;20204;-77
2021/12/05 06:52:09;;;;;;;3.80;1.20;;;3.10;99.90;;;;;;5015289;28;20201;-77
2021/12/05 06:54:39;;;;;;;2.70;1.10;;;3.20;99.90;;;;;;5015619;28;20516;-75
2021/12/05 06:57:06;;;;;;;2.77;1.23;;;3.00;99.90;;;;;;5015458;28;20167;-77
2021/12/05 06:59:33;;;;;;;2.80;1.30;;;3.00;99.90;;;;;;5011965;28;20180;-77
2021/12/05 07:01:58;;;;;;;2.40;1.17;;;3.00;99.90;;;;;;5008137;28;20203;-77
2021/12/05 07:07:03;;;;;;;3.63;1.17;;;2.90;99.90;;;;;;5015504;28;20175;-77
2021/12/05 07:09:28;;;;;;;3.43;1.60;;;2.90;99.90;;;;;;5015090;28;20222;-77
2021/12/05 07:12:38;;;;;;;5.30;1.30;;;2.90;99.90;;;;;;5014964;28;20226;-77
2021/12/05 07:14:59;;;;;;;2.30;1.20;;;2.80;99.90;;;;;;5014647;28;20175;-77
2021/12/05 07:22:28;;;;;;;3.90;1.80;;;2.80;99.90;;;;;;5014738;28;20608;-76
2021/12/05 07:25:06;;;;;;;4.77;1.80;;;2.80;99.90;;;;;;5014655;28;20663;-77
2021/12/05 07:41:45;;;;;;;4.23;2.73;;;2.80;99.90;;;;;;5003832;28;20275;-75
2021/12/05 07:44:01;;;;;;;7.27;5.27;;;2.70;99.90;;;;;;5007056;28;20598;-77
2021/12/05 07:46:26;;;;;;;4.07;2.00;;;2.60;99.90;;;;;;5012915;28;20167;-77
2021/12/05 07:48:52;;;;;;;4.10;1.73;;;2.40;99.90;;;;;;5012679;28;20183;-77
2021/12/05 07:54:03;;;;;;;4.50;1.87;;;2.10;99.90;;;;;;5012958;28;20623;-77
2021/12/05 07:56:39;;;;;;;3.83;1.70;;;2.00;99.90;;;;;;5012783;28;20707;-76
2021/12/05 08:15:41;;;;;;;10.73;7.10;;;1.70;99.90;;;;;;5014068;28;20190;-75
2021/12/05 08:18:07;;;;;;;4.73;2.20;;;1.90;99.90;;;;;;5013817;28;20226;-77
2021/12/05 08:20:39;;;;;;;4.67;2.27;;;1.70;99.90;;;;;;4996049;28;20200;-77
2021/12/05 08:23:06;;;;;;;9.97;2.70;;;1.80;99.90;;;;;;4982803;28;20193;-76
2021/12/05 08:25:38;;;;;;;3.87;2.47;;;1.80;99.90;;;;;;5013349;28;20357;-76
2021/12/05 08:31:02;;;;;;;4.67;3.67;;;2.00;99.90;;;;;;5010524;28;20201;-77
2021/12/05 09:25:01;;;;;;;3.37;1.27;;;3.40;99.90;;;;;;5012477;28;20669;-76
2021/12/05 10:03:07;;;;;;;2.87;1.13;;;4.40;99.90;;;;;;5014418;28;20233;-77
2021/12/05 10:08:36;;;;;;;2.20;1.20;;;4.60;99.90;;;;;;5012483;28;20930;-75
2021/12/05 10:11:31;;;;;;;2.10;1.30;;;4.50;99.90;;;;;;4998012;28;20219;-76
2021/12/05 10:35:05;;;;;;;2.10;0.97;;;4.30;99.90;;;;;;5006540;28;20186;-78
2021/12/05 10:37:17;;;;;;;1.33;1.10;;;4.50;99.90;;;;;;5007100;28;20207;-78
2021/12/05 10:39:43;;;;;;;3.13;1.30;;;4.50;99.90;;;;;;5017514;28;20186;-79
2021/12/05 10:42:43;;;;;;;2.47;1.73;;;4.60;99.90;;;;;;5015587;28;20263;-76
2021/12/05 10:45:19;;;;;;;3.17;1.60;;;4.70;99.90;;;;;;4997971;28;20183;-77
2021/12/05 10:47:49;;;;;;;1.60;1.40;;;4.90;99.90;;;;;;5015473;28;20550;-77
2021/12/05 10:50:39;;;;;;;3.63;1.30;;;5.00;99.90;;;;;;5015455;28;20284;-77
2021/12/05 10:53:28;;;;;;;1.70;0.80;;;4.90;99.90;;;;;;4996110;28;20237;-77
2021/12/05 10:56:03;;;;;;;1.73;0.87;;;4.80;99.90;;;;;;5012660;28;20182;-77
2021/12/05 10:58:36;;;;;;;2.37;1.03;;;4.60;99.90;;;;;;5015325;28;20186;-77
2021/12/05 11:01:12;;;;;;;1.37;1.20;;;4.60;99.90;;;;;;5015567;28;20580;-77
2021/12/05 11:03:39;;;;;;;4.13;1.00;;;4.70;99.90;;;;;;5015332;28;20206;-77
2021/12/05 11:06:24;;;;;;;2.40;1.10;;;4.60;99.90;;;;;;5013257;28;20333;-76
2021/12/05 11:09:04;;;;;;;1.80;1.23;;;4.70;99.90;;;;;;5015114;28;20209;-77
2021/12/05 11:11:31;;;;;;;2.30;1.80;;;4.80;99.90;;;;;;5014949;28;20286;-77
2021/12/05 11:13:58;;;;;;;2.07;1.50;;;4.90;99.90;;;;;;5014029;28;20580;-77
2021/12/05 11:16:37;;;;;;;2.37;1.40;;;4.90;99.90;;;;;;5014291;28;20196;-77
2021/12/05 11:19:27;;;;;;;1.60;0.80;;;5.00;99.90;;;;;;5014689;28;20172;-76
2021/12/05 11:22:00;;;;;;;1.60;0.80;;;5.10;99.90;;;;;;5014579;28;20226;-78
2021/12/05 11:24:31;;;;;;;2.93;1.50;;;5.10;99.90;;;;;;4997131;28;20220;-75
2021/12/05 11:27:08;;;;;;;4.17;1.30;;;5.20;99.90;;;;;;4997131;28;20230;-78
2021/12/05 11:30:00;;;;;;;2.83;1.00;;;5.30;99.90;;;;;;5015035;28;20622;-76
2021/12/05 11:32:35;;;;;;;1.37;0.77;;;5.20;99.90;;;;;;5014524;28;20197;-77
2021/12/05 11:35:16;;;;;;;3.17;1.20;;;5.10;99.90;;;;;;5014923;28;20176;-76
2021/12/05 11:37:59;;;;;;;1.57;1.10;;;5.00;99.90;;;;;;4996338;28;20174;-77
2021/12/05 11:40:30;;;;;;;1.93;1.00;;;5.00;99.90;;;;;;5014307;28;20176;-77
2021/12/05 11:43:01;;;;;;;4.25;2.00;;;4.90;99.90;;;;;;4995890;28;20419;-77
2021/12/05 11:45:29;;;;;;;2.57;1.13;;;5.10;99.90;;;;;;4997456;28;20186;-77
2021/12/05 11:51:23;;;;;;;2.10;1.00;;;5.20;99.90;;;;;;5831281;22;20230;-75
2021/12/05 11:54:27;;;;;;;1.07;0.90;;;5.30;99.90;;;;;;5027306;28;20233;-77
2021/12/05 11:56:57;;;;;;;1.63;0.93;;;5.30;99.90;;;;;;5030477;28;20260;-78
2021/12/05 11:59:34;;;;;;;4.23;1.00;;;5.30;99.90;;;;;;5027520;28;20172;-77
2021/12/05 12:02:26;;;;;;;2.40;0.93;;;5.40;99.90;;;;;;5000634;28;20569;-78
2021/12/05 12:05:04;;;;;;;2.10;0.90;;;5.40;99.90;;;;;;5008134;28;20641;-79
2021/12/05 12:07:46;;;;;;;2.10;0.83;;;5.40;99.90;;;;;;5033579;28;20163;-78
2021/12/05 12:10:24;;;;;;;2.97;0.90;;;5.40;99.90;;;;;;5037039;28;20260;-78
2021/12/05 12:12:56;;;;;;;0.73;0.73;;;5.30;99.90;;;;;;5027680;28;20163;-77
2021/12/05 12:15:25;;;;;;;4.83;1.23;;;5.30;99.90;;;;;;5008241;28;20157;-77
2021/12/05 12:17:55;;;;;;;1.57;1.17;;;5.20;99.90;;;;;;5007492;28;20183;-77
2021/12/05 12:20:23;;;;;;;1.73;1.03;;;5.20;99.90;;;;;;5027509;28;20198;-77
2021/12/05 12:22:50;;;;;;;2.00;1.23;;;5.20;99.90;;;;;;5039752;28;20185;-77
2021/12/05 12:25:23;;;;;;;0.97;0.80;;;5.20;99.90;;;;;;5039918;28;20179;-78
2021/12/05 12:27:50;;;;;;;0.77;0.73;;;5.20;99.90;;;;;;5016857;28;20167;-78
2021/12/05 12:30:25;;;;;;;1.80;0.90;;;5.20;99.90;;;;;;5011011;28;20208;-78
2021/12/05 12:33:05;;;;;;;3.03;1.27;;;5.20;99.90;;;;;;5018956;28;20222;-78
2021/12/05 12:35:33;;;;;;;2.67;1.40;;;5.10;99.90;;;;;;5040545;28;20164;-78
2021/12/05 12:38:09;;;;;;;2.77;1.00;;;5.10;99.90;;;;;;5036539;28;20509;-77
2021/12/05 12:40:53;;;;;;;3.50;1.43;;;5.10;99.90;;;;;;5022509;28;20195;-77
2021/12/05 12:43:42;;;;;;;2.63;1.50;;;5.10;99.90;;;;;;5015900;28;20158;-77
2021/12/05 12:46:28;;;;;;;3.73;1.90;;;5.10;99.90;;;;;;5033200;28;20169;-78
2021/12/05 12:49:14;;;;;;;4.97;1.47;;;5.20;99.90;;;;;;5038226;28;20166;-78
2021/12/05 12:52:03;;;;;;;1.63;1.10;;;5.20;99.90;;;;;;5021135;28;20714;-78
2021/12/05 12:54:31;;;;;;;2.60;1.10;;;5.20;99.90;;;;;;5016835;28;20187;-77
2021/12/05 12:57:02;;;;;;;1.53;1.10;;;5.20;99.90;;;;;;5022833;28;20176;-77
2021/12/05 12:59:31;;;;;;;1.40;0.83;;;5.20;99.90;;;;;;5031240;28;20168;-78
2021/12/05 13:10:39;;;;;;;3.07;1.53;;;5.00;99.90;;;;;;5051660;22;20238;-76
2021/12/05 13:13:23;;;;;;;2.23;1.40;;;5.00;99.90;;;;;;5015792;28;20250;-77
2021/12/05 13:15:53;;;;;;;2.17;1.20;;;5.00;99.90;;;;;;4991993;28;20263;-77
2021/12/05 13:18:31;;;;;;;3.17;1.20;;;5.00;99.90;;;;;;4997873;28;20171;-77
2021/12/05 13:21:06;;;;;;;2.43;1.50;;;5.00;99.90;;;;;;5006071;28;20199;-77
2021/12/05 13:23:50;;;;;;;1.30;1.00;;;5.00;99.90;;;;;;5002189;28;20184;-76
2021/12/05 13:26:16;;;;;;;1.60;1.00;;;5.00;99.90;;;;;;4993109;28;20265;-76
2021/12/05 13:28:53;;;;;;;2.37;0.80;;;5.10;99.90;;;;;;5003057;28;20184;-76
2021/12/05 13:31:28;;;;;;;2.67;0.80;;;5.10;99.90;;;;;;5009947;28;20696;-75
2021/12/05 13:34:21;;;;;;;3.17;1.10;;;5.20;99.90;;;;;;4997761;28;20172;-77
2021/12/05 13:36:50;;;;;;;4.27;3.00;;;5.20;99.90;;;;;;4991710;28;20540;-75
2021/12/05 13:39:37;;;;;;;5.37;2.50;;;5.20;99.90;;;;;;4993565;28;20198;-75
2021/12/05 13:42:11;;;;;;;1.57;1.00;;;5.20;99.90;;;;;;5007867;28;20179;-76
2021/12/05 13:44:59;;;;;;;1.83;0.80;;;5.20;99.90;;;;;;4997147;28;20164;-75
2021/12/05 13:47:31;;;;;;;2.17;1.00;;;5.30;99.90;;;;;;5000333;28;20443;-75
2021/12/05 13:50:22;;;;;;;1.77;0.80;;;5.30;99.90;;;;;;5001060;28;20211;-76
2021/12/05 13:52:56;;;;;;;2.60;1.00;;;5.20;99.90;;;;;;5000053;28;20641;-76
2021/12/05 13:55:34;;;;;;;2.07;0.90;;;5.20;99.90;;;;;;4999890;28;20567;-76
2021/12/05 13:58:38;;;;;;;2.10;1.30;;;5.20;99.90;;;;;;5000673;28;20174;-76
2021/12/05 14:01:23;;;;;;;1.77;1.10;;;5.20;99.90;;;;;;5001741;28;20603;-76
2021/12/05 14:03:57;;;;;;;2.20;1.40;;;5.20;99.90;;;;;;5008128;28;20173;-74
2021/12/05 14:06:30;;;;;;;1.43;0.87;;;5.20;99.90;;;;;;5013183;28;20159;-75
2021/12/05 14:09:20;;;;;;;1.63;1.07;;;5.10;99.90;;;;;;5013302;28;20169;-77
2021/12/05 14:12:04;;;;;;;3.63;1.40;;;5.10;99.90;;;;;;5001880;28;20219;-77
2021/12/05 14:14:43;;;;;;;3.80;0.90;;;5.10;99.90;;;;;;5003969;28;20275;-76
2021/12/05 14:17:23;;;;;;;1.63;0.93;;;5.20;99.90;;;;;;4993608;28;20203;-76
2021/12/05 14:19:53;;;;;;;2.53;1.33;;;5.20;99.90;;;;;;4995883;28;20188;-75
2021/12/05 14:22:21;;;;;;;1.80;0.90;;;5.20;99.90;;;;;;5013348;28;20176;-76
2021/12/05 14:24:51;;;;;;;2.90;1.13;;;5.20;99.90;;;;;;5011813;28;20672;-75
2021/12/05 14:27:23;;;;;;;2.00;1.30;;;5.20;99.90;;;;;;5013420;28;20536;-76
2021/12/05 14:29:51;;;;;;;2.20;1.10;;;5.20;99.90;;;;;;5013166;28;20670;-77
2021/12/05 14:32:22;;;;;;;1.77;0.90;;;5.10;99.90;;;;;;5013634;28;20180;-76
2021/12/05 14:34:52;;;;;;;1.30;1.00;;;5.10;99.90;;;;;;5012619;28;20182;-76
2021/12/05 14:37:22;;;;;;;3.10;1.17;;;5.10;99.90;;;;;;5013208;28;20153;-77
2021/12/05 14:39:50;;;;;;;2.03;1.33;;;5.00;99.90;;;;;;5013344;28;20194;-76
2021/12/05 14:42:24;;;;;;;2.53;1.37;;;5.00;99.90;;;;;;5011288;28;20275;-76
2021/12/05 14:44:53;;;;;;;3.63;1.40;;;5.00;99.90;;;;;;5011879;28;20175;-76
2021/12/05 14:47:23;;;;;;;2.03;1.27;;;5.00;99.90;;;;;;4997415;28;20222;-76
2021/12/05 14:49:55;;;;;;;3.53;1.40;;;4.90;99.90;;;;;;5002557;28;20616;-76
2021/12/05 14:52:29;;;;;;;1.93;1.17;;;4.90;99.90;;;;;;5002803;28;20654;-74
2021/12/05 14:54:56;;;;;;;1.90;1.07;;;4.90;99.90;;;;;;5008707;28;20177;-76
2021/12/05 14:57:27;;;;;;;3.00;1.20;;;4.90;99.90;;;;;;5010734;28;20189;-76
2021/12/05 15:00:01;;;;;;;2.23;0.87;;;4.90;99.90;;;;;;5006047;28;20205;-77
2021/12/05 15:02:28;;;;;;;2.90;1.27;;;4.90;99.90;;;;;;5013217;28;20525;-75
2021/12/05 15:04:54;;;;;;;2.00;0.80;;;4.90;99.90;;;;;;5005754;28;20648;-76
2021/12/05 15:07:23;;;;;;;2.37;0.93;;;4.90;99.90;;;;;;5012084;28;20183;-77
2021/12/05 15:09:53;;;;;;;1.00;0.80;;;4.90;99.90;;;;;;5010393;28;20235;-76
2021/12/05 15:12:23;;;;;;;4.67;0.80;;;5.00;99.90;;;;;;5009642;28;20182;-76
2021/12/05 15:14:52;;;;;;;1.50;0.50;;;5.00;99.90;;;;;;5011965;28;20705;-77
2021/12/05 15:17:29;;;;;;;1.83;0.90;;;4.90;99.90;;;;;;5013120;28;20513;-76
2021/12/05 15:19:57;;;;;;;1.40;0.97;;;4.90;99.90;;;;;;5012441;28;20307;-76
2021/12/05 15:22:23;;;;;;;2.07;1.00;;;4.70;99.90;;;;;;4996137;28;20605;-76
2021/12/05 15:24:55;;;;;;;2.03;1.10;;;4.70;99.90;;;;;;5003663;28;20680;-76
2021/12/05 15:27:24;;;;;;;2.20;1.10;;;4.50;99.90;;;;;;4999311;28;20264;-75
2021/12/05 15:29:58;;;;;;;2.73;1.37;;;4.40;99.90;;;;;;4995363;28;20199;-76
2021/12/05 15:32:27;;;;;;;2.77;1.57;;;4.40;99.90;;;;;;4995094;28;20174;-75
2021/12/05 15:34:56;;;;;;;3.73;1.40;;;4.40;99.90;;;;;;5003922;28;20171;-77
2021/12/05 15:40:04;;;;;;;3.73;2.50;;;4.30;99.90;;;;;;6009939;23;20332;-77
2021/12/05 15:42:33;;;;;;;3.40;1.93;;;4.30;99.90;;;;;;5017760;28;20929;-78
2021/12/05 15:45:02;;;;;;;3.67;2.67;;;4.30;99.90;;;;;;5041701;28;20179;-77
2021/12/05 15:47:31;;;;;;;1.47;1.33;;;4.20;99.90;;;;;;5024449;28;20974;-78
2021/12/05 15:50:02;;;;;;;2.13;1.00;;;4.20;99.90;;;;;;5018037;28;20272;-78
2021/12/05 15:52:52;;;;;;;1.70;1.60;;;4.20;99.90;;;;;;5015527;28;20670;-78
2021/12/05 15:55:23;;;;;;;4.23;1.67;;;4.10;99.90;;;;;;5029121;28;20167;-78
2021/12/05 15:57:54;;;;;;;2.00;1.90;;;4.10;99.90;;;;;;5017469;28;20186;-79
2021/12/05 16:00:27;;;;;;;2.50;2.13;;;4.10;99.90;;;;;;5030281;28;20562;-78
2021/12/05 16:03:27;;;;;;;2.23;1.93;;;4.10;99.90;;;;;;5015390;28;20225;-78
2021/12/05 16:06:01;;;;;;;2.23;1.90;;;4.10;99.90;;;;;;4987677;28;20234;-77
2021/12/05 16:08:29;;;;;;;2.93;1.70;;;4.10;99.90;;;;;;5028902;28;20178;-78
2021/12/05 16:10:59;;;;;;;2.77;1.40;;;4.20;99.90;;;;;;5027353;28;20222;-78
2021/12/05 16:13:46;;;;;;;2.53;1.93;;;4.20;99.90;;;;;;5033110;28;20175;-78
2021/12/05 16:16:20;;;;;;;3.63;2.20;;;4.10;99.90;;;;;;5032684;28;20266;-78
2021/12/05 16:18:51;;;;;;;3.00;2.00;;;4.10;99.90;;;;;;5032437;28;20174;-77
2021/12/05 16:21:19;;;;;;;2.30;2.10;;;4.10;99.90;;;;;;5035994;28;20293;-77
2021/12/05 16:23:48;;;;;;;4.77;3.40;;;4.10;99.90;;;;;;5032203;28;20274;-78
2021/12/05 16:26:19;;;;;;;1.90;1.40;;;4.00;99.90;;;;;;5034757;28;20191;-77
2021/12/05 16:28:50;;;;;;;3.17;2.23;;;4.00;99.90;;;;;;5030648;28;20183;-77
2021/12/05 16:31:31;;;;;;;2.50;2.00;;;4.00;99.90;;;;;;5028422;28;20261;-78
2021/12/05 16:34:19;;;;;;;1.80;1.50;;;3.90;99.90;;;;;;5028570;28;20193;-78
2021/12/05 16:36:53;;;;;;;2.20;2.00;;;3.80;99.90;;;;;;5009064;28;20226;-78
2021/12/05 16:39:42;;;;;;;3.20;2.90;;;3.90;99.90;;;;;;5016438;28;20205;-78
2021/12/05 16:42:10;;;;;;;4.27;2.90;;;3.80;99.90;;;;;;5033070;28;20233;-77
2021/12/05 16:44:39;;;;;;;3.07;2.40;;;3.70;99.90;;;;;;5006120;28;20204;-77
2021/12/05 16:47:16;;;;;;;2.67;2.47;;;3.70;99.90;;;;;;5028999;28;20178;-77
2021/12/05 16:49:45;;;;;;;5.30;4.80;;;3.70;99.90;;;;;;5025847;28;20174;-77
2021/12/05 16:52:28;;;;;;;42.57;23.40;;;3.60;99.90;;;;;;5018483;28;20234;-77
2021/12/05 16:55:03;;;;;;;2.87;1.93;;;3.50;99.90;;;;;;5026857;28;20200;-77
2021/12/05 16:57:39;;;;;;;2.60;2.00;;;3.30;99.90;;;;;;5029006;28;20637;-76
2021/12/05 17:00:15;;;;;;;4.67;1.60;;;3.30;99.90;;;;;;5014673;28;20206;-77
2021/12/05 17:02:53;;;;;;;10.60;5.63;;;3.30;99.90;;;;;;5020011;28;20254;-77
2021/12/05 17:05:27;;;;;;;23.17;10.97;;;3.40;99.90;;;;;;5018989;28;20311;-78
2021/12/05 17:08:02;;;;;;;26.03;11.03;;;3.40;99.90;;;;;;5014348;28;20185;-78
2021/12/05 17:10:30;;;;;;;13.50;6.83;;;3.40;99.90;;;;;;5022378;28;20217;-78
2021/12/05 17:13:14;;;;;;;7.37;4.30;;;3.20;99.90;;;;;;5028909;28;20177;-79
2021/12/05 17:16:01;;;;;;;9.27;5.60;;;3.20;99.90;;;;;;5018839;28;20178;-77
2021/12/05 17:18:43;;;;;;;3.20;2.90;;;3.10;99.90;;;;;;5025642;28;20164;-78
2021/12/05 17:21:16;;;;;;;2.07;1.77;;;3.00;99.90;;;;;;5022190;28;20267;-77
2021/12/05 17:23:46;;;;;;;4.23;1.93;;;2.90;99.90;;;;;;5015851;28;20541;-78
2021/12/05 17:26:28;;;;;;;3.37;2.80;;;2.90;99.90;;;;;;5029357;28;20190;-78
2021/12/05 17:29:19;;;;;;;3.00;2.57;;;2.80;99.90;;;;;;5011036;28;20210;-78
2021/12/05 17:31:54;;;;;;;5.13;4.00;;;2.60;99.90;;;;;;5031077;28;20209;-78
2021/12/05 17:34:22;;;;;;;49.63;21.93;;;2.40;99.90;;;;;;5006639;28;20564;-77
2021/12/05 17:37:06;;;;;;;16.83;9.63;;;2.40;99.90;;;;;;5025014;28;20691;-78
2021/12/05 17:39:35;;;;;;;5.30;3.90;;;2.40;99.90;;;;;;5016377;28;20186;-78
2021/12/05 17:42:09;;;;;;;9.63;4.77;;;2.50;99.90;;;;;;5023349;28;20230;-77
2021/12/05 17:44:36;;;;;;;7.47;5.50;;;2.50;99.90;;;;;;5018888;28;20222;-78
2021/12/05 17:47:04;;;;;;;9.73;5.30;;;2.50;99.90;;;;;;5004931;28;20254;-77
2021/12/05 17:49:33;;;;;;;6.67;5.97;;;2.60;99.90;;;;;;5013388;28;20731;-77
2021/12/05 17:52:00;;;;;;;7.77;6.23;;;2.70;99.90;;;;;;5012755;28;20778;-77
2021/12/05 17:54:37;;;;;;;11.07;7.97;;;2.80;99.90;;;;;;5001398;28;20180;-77
2021/12/05 17:57:15;;;;;;;2.93;2.73;;;2.80;99.90;;;;;;5020359;28;20254;-78
2021/12/05 17:59:55;;;;;;;2.63;1.90;;;2.60;99.90;;;;;;5022624;28;20179;-77
2021/12/05 18:02:47;;;;;;;3.17;2.10;;;2.40;99.90;;;;;;5003288;28;20185;-77
2021/12/05 18:05:21;;;;;;;3.07;1.63;;;2.20;99.90;;;;;;5027430;28;20253;-77
2021/12/05 18:07:50;;;;;;;6.50;3.80;;;2.00;99.90;;;;;;5035256;28;20190;-77
2021/12/05 18:10:18;;;;;;;4.10;2.43;;;1.80;99.90;;;;;;5034304;28;20198;-77
2021/12/05 18:12:45;;;;;;;3.23;2.53;;;1.90;99.90;;;;;;5035728;28;20263;-77
2021/12/05 18:15:21;;;;;;;2.83;2.53;;;1.90;99.90;;;;;;5019113;28;20174;-77
2021/12/05 18:17:47;;;;;;;4.37;3.30;;;1.90;99.90;;;;;;5048235;28;20211;-77
2021/12/05 18:20:15;;;;;;;5.33;3.80;;;2.00;99.90;;;;;;5023874;28;20207;-77
2021/12/05 18:22:41;;;;;;;6.53;4.87;;;2.10;99.90;;;;;;5040074;28;20228;-77
2021/12/05 18:25:09;;;;;;;6.00;2.50;;;2.10;99.90;;;;;;5041183;28;20217;-78
2021/12/05 18:27:35;;;;;;;3.20;2.90;;;1.90;99.90;;;;;;5041547;28;20253;-77
2021/12/05 18:30:03;;;;;;;2.80;2.50;;;1.70;99.90;;;;;;5041374;28;20261;-77
2021/12/05 18:32:29;;;;;;;3.80;2.27;;;1.60;99.90;;;;;;5041370;28;20182;-77
2021/12/05 18:34:55;;;;;;;3.30;3.00;;;1.50;99.90;;;;;;5039008;28;20164;-77
2021/12/05 18:37:20;;;;;;;2.97;2.60;;;1.20;99.90;;;;;;5038101;28;20251;-77
2021/12/05 18:39:50;;;;;;;4.03;2.33;;;1.30;99.90;;;;;;5040396;28;20174;-77
2021/12/05 18:42:18;;;;;;;3.20;2.50;;;1.30;99.90;;;;;;5039369;28;20273;-77
2021/12/05 18:44:49;;;;;;;3.33;2.83;;;1.30;99.90;;;;;;5020877;28;20178;-77
2021/12/05 18:47:16;;;;;;;3.50;2.80;;;1.20;99.90;;;;;;5040388;28;20175;-77
2021/12/05 18:49:44;;;;;;;3.30;3.00;;;1.30;99.90;;;;;;5039378;28;20170;-77
2021/12/05 18:52:10;;;;;;;4.30;3.70;;;1.40;99.90;;;;;;5021411;28;20174;-77
2021/12/05 18:54:41;;;;;;;6.57;4.77;;;1.50;99.90;;;;;;5019111;28;20167;-77